Time;durP1;ratioP1;P1;durP2;ratioP2;P2;SDS_P1;SDS_P2;PMS_P1;PMS_P2;Temp;Humidity;BMP_temperature;BMP_pressure;BME280_temperature;BME280_humidity;BME280_pressure;Samples;Min_cycle;Max_cycle;Signal;HPM_P1;HPM_P2
2022/01/10 00:00:10;;;;;;;0.10;0.10;;;;;;;4.38;67.41;101149.00;5034780;28;20477;-82
2022/01/10 00:02:37;;;;;;;0.25;0.25;;;;;;;4.31;67.68;101144.56;5034694;28;20112;-83
2022/01/10 00:05:04;;;;;;;0.10;0.10;;;;;;;4.31;67.29;101147.16;5032597;28;20401;-83
2022/01/10 00:07:30;;;;;;;0.10;0.10;;;;;;;4.29;67.40;101151.53;5031272;28;20021;-82
2022/01/10 00:09:56;;;;;;;0.77;0.77;;;;;;;4.31;67.29;101155.94;5021050;28;20461;-82
2022/01/10 00:12:24;;;;;;;0.10;0.10;;;;;;;4.38;67.44;101167.38;5021120;28;20038;-83
2022/01/10 00:14:50;;;;;;;0.10;0.10;;;;;;;4.39;67.64;101174.38;5024594;28;20420;-82
2022/01/10 00:17:16;;;;;;;0.10;0.10;;;;;;;4.42;67.45;101179.66;5029526;28;20228;-83
2022/01/10 00:19:42;;;;;;;0.10;0.10;;;;;;;4.46;68.17;101175.31;5027681;28;20496;-83
2022/01/10 00:22:10;;;;;;;0.20;0.20;;;;;;;4.51;68.07;101182.38;5027754;28;20029;-83
2022/01/10 00:24:37;;;;;;;0.10;0.10;;;;;;;4.59;67.68;101192.09;5025812;28;20033;-82
2022/01/10 00:27:03;;;;;;;0.10;0.10;;;;;;;4.64;67.75;101193.00;5026084;28;20030;-82
2022/01/10 00:29:30;;;;;;;0.10;0.10;;;;;;;4.70;68.24;101190.44;5034688;28;20025;-83
2022/01/10 00:31:57;;;;;;;0.20;0.20;;;;;;;4.74;67.96;101197.47;5033881;28;20080;-82
2022/01/10 00:34:25;;;;;;;1.55;1.10;;;;;;;4.78;68.05;101191.38;5032475;28;20076;-82
2022/01/10 00:36:51;;;;;;;0.10;0.10;;;;;;;4.83;68.17;101189.66;5028860;28;20021;-82
2022/01/10 00:39:17;;;;;;;0.10;0.10;;;;;;;4.84;68.38;101191.44;5032019;28;20041;-82
2022/01/10 00:41:45;;;;;;;0.10;0.10;;;;;;;4.88;68.42;101194.97;5020770;28;20033;-82
2022/01/10 00:44:12;;;;;;;0.10;0.10;;;;;;;4.86;68.50;101192.34;5020898;28;20022;-82
2022/01/10 00:46:39;;;;;;;0.20;0.20;;;;;;;4.88;68.40;101199.34;5033814;28;20030;-82
2022/01/10 00:49:07;;;;;;;0.13;0.13;;;;;;;4.86;68.13;101197.59;5033149;28;20033;-82
2022/01/10 00:51:34;;;;;;;0.15;0.15;;;;;;;4.84;68.31;101219.44;5024371;28;20017;-82
2022/01/10 00:54:00;;;;;;;0.10;0.10;;;;;;;4.85;67.74;101229.97;5028392;28;20053;-82
2022/01/10 00:56:26;;;;;;;0.10;0.10;;;;;;;4.85;68.10;101226.47;5027990;28;20032;-82
2022/01/10 00:58:52;;;;;;;0.10;0.10;;;;;;;4.86;68.25;101228.25;5032266;28;20041;-82
2022/01/10 01:01:19;;;;;;;0.10;0.10;;;;;;;4.88;67.93;101226.47;5031181;28;20041;-82
2022/01/10 01:03:46;;;;;;;0.10;0.10;;;;;;;4.89;68.20;101236.13;5023615;28;20026;-83
2022/01/10 01:06:14;;;;;;;3.00;1.20;;;;;;;4.92;68.02;101243.16;5019902;28;20022;-82
2022/01/10 01:08:42;;;;;;;0.10;0.10;;;;;;;4.92;68.52;101236.16;5023402;28;20056;-82
2022/01/10 01:11:32;;;;;;;0.10;0.10;;;;;;;4.95;68.16;101248.44;5022197;28;20026;-82
2022/01/10 01:13:58;;;;;;;0.10;0.10;;;;;;;4.95;68.26;101248.44;5019869;28;20496;-81
2022/01/10 01:24:50;;;;;;;1.23;1.13;;;;;;;4.79;68.49;101263.16;5116834;28;20051;-81
2022/01/10 01:27:16;;;;;;;0.10;0.10;;;;;;;4.78;68.01;101262.25;5124050;28;20028;-80
2022/01/10 01:29:42;;;;;;;0.10;0.10;;;;;;;4.72;68.00;101261.31;5125410;28;20023;-81
2022/01/10 01:32:08;;;;;;;0.10;0.10;;;;;;;4.78;67.79;101275.38;5114401;27;20024;-81
2022/01/10 01:34:35;;;;;;;0.10;0.10;;;;;;;4.80;68.43;101268.41;5109050;28;20032;-81
2022/01/10 01:37:02;;;;;;;0.10;0.10;;;;;;;4.82;68.01;101271.97;5108543;28;20099;-81
2022/01/10 01:39:30;;;;;;;4.65;1.33;;;;;;;4.84;67.97;101285.09;5114895;27;20027;-81
2022/01/10 01:42:03;;;;;;;0.10;0.10;;;;;;;4.88;68.28;101286.00;5095486;28;20051;-81
2022/01/10 01:44:30;;;;;;;0.20;0.20;;;;;;;4.91;68.46;101288.66;5116596;27;20075;-81
2022/01/10 01:46:57;;;;;;;0.10;0.10;;;;;;;4.92;67.92;101287.78;5106303;28;20101;-80
2022/01/10 01:49:23;;;;;;;0.10;0.10;;;;;;;4.93;68.37;101290.44;5108256;28;20024;-81
2022/01/10 01:51:50;;;;;;;0.43;0.43;;;;;;;4.94;67.98;101301.81;5102026;28;20035;-81
2022/01/10 01:54:17;;;;;;;0.20;0.20;;;;;;;4.95;68.03;101301.84;5111981;28;20024;-81
2022/01/10 01:56:44;;;;;;;0.10;0.10;;;;;;;4.96;68.25;101310.59;5106643;27;20025;-81
2022/01/10 01:59:12;;;;;;;0.80;0.80;;;;;;;4.98;68.20;101316.75;5110108;28;20039;-79
2022/01/10 02:01:38;;;;;;;0.10;0.10;;;;;;;4.99;68.28;101315.88;5103025;28;20043;-80
2022/01/10 02:04:04;;;;;;;0.10;0.10;;;;;;;5.00;68.48;101318.53;5111017;28;20026;-81
2022/01/10 02:06:31;;;;;;;0.52;0.52;;;;;;;5.00;68.44;101315.88;5110572;28;20039;-81
2022/01/10 02:08:57;;;;;;;0.10;0.10;;;;;;;4.97;68.22;101313.25;5113026;28;20092;-81
2022/01/10 02:11:23;;;;;;;0.38;0.38;;;;;;;4.94;68.09;101330.72;5106417;28;20379;-81
2022/01/10 02:13:49;;;;;;;0.20;0.20;;;;;;;4.87;68.77;101340.25;5103341;28;20365;-80
2022/01/10 02:16:21;;;;;;;0.17;0.17;;;;;;;4.86;68.69;101344.63;5112983;28;20036;-81
2022/01/10 02:18:49;;;;;;;0.20;0.20;;;;;;;4.83;69.00;101351.59;5106123;27;20081;-81
2022/01/10 02:21:15;;;;;;;0.10;0.10;;;;;;;4.86;68.46;101355.13;5107988;27;20501;-81
2022/01/10 02:23:42;;;;;;;0.22;0.22;;;;;;;4.90;68.02;101357.78;5109146;28;20024;-80
2022/01/10 02:26:09;;;;;;;0.20;0.20;;;;;;;4.86;68.35;101355.13;5108803;28;20032;-81
2022/01/10 02:28:36;;;;;;;0.20;0.20;;;;;;;4.86;68.19;101363.00;5110920;28;20031;-80
2022/01/10 02:31:02;;;;;;;0.55;0.55;;;;;;;4.88;68.01;101362.16;5113703;28;20035;-81
2022/01/10 02:33:31;;;;;;;0.50;0.50;;;;;;;4.87;68.36;101374.38;5093614;28;20021;-79
2022/01/10 02:36:12;;;;;;;0.10;0.10;;;;;;;4.85;68.16;101381.38;5094571;28;20024;-81
2022/01/10 02:38:47;;;;;;;0.20;0.20;;;;;;;4.87;68.38;101382.25;5094457;28;20024;-82
2022/01/10 02:41:29;;;;;;;0.10;0.10;;;;;;;4.79;68.81;101390.03;5098199;28;20055;-80
2022/01/10 02:43:56;;;;;;;0.20;0.20;;;;;;;4.77;68.49;101412.78;5100545;28;20406;-82
2022/01/10 02:46:23;;;;;;;0.10;0.10;;;;;;;4.78;68.41;101409.28;5093580;28;20031;-79
2022/01/10 02:48:50;;;;;;;0.10;0.10;;;;;;;4.80;68.44;101407.56;5090342;28;20475;-82
2022/01/10 02:51:16;;;;;;;0.10;0.10;;;;;;;4.81;68.36;101404.09;5094296;28;20431;-81
2022/01/10 02:53:42;;;;;;;0.10;0.10;;;;;;;4.82;68.45;101418.97;5089078;28;20100;-81
2022/01/10 02:56:09;;;;;;;0.10;0.10;;;;;;;4.82;68.55;101413.72;5089544;28;20029;-81
2022/01/10 02:58:35;;;;;;;0.10;0.10;;;;;;;4.83;68.75;101418.09;5087585;28;20420;-81
2022/01/10 03:01:02;;;;;;;0.20;0.20;;;;;;;4.85;68.49;101426.88;5092009;28;20039;-82
2022/01/10 03:03:30;;;;;;;0.10;0.10;;;;;;;4.91;68.42;101425.19;5094398;28;20080;-81
2022/01/10 03:05:57;;;;;;;1.17;1.17;;;;;;;4.93;68.64;101423.47;5082472;28;20498;-81
2022/01/10 03:08:25;;;;;;;0.20;0.20;;;;;;;4.99;68.27;101439.31;5088707;28;20028;-81
2022/01/10 03:10:52;;;;;;;0.20;0.20;;;;;;;5.00;68.60;101420.06;5089738;28;20388;-80
2022/01/10 03:13:18;;;;;;;0.10;0.10;;;;;;;5.04;68.49;101432.38;5092129;28;20043;-81
2022/01/10 03:15:44;;;;;;;0.32;0.28;;;;;;;5.07;68.59;101427.16;5088367;28;20103;-81
2022/01/10 03:18:11;;;;;;;0.10;0.10;;;;;;;5.10;68.40;101440.31;5090237;28;20031;-82
2022/01/10 03:20:37;;;;;;;0.32;0.32;;;;;;;5.11;68.35;101446.44;5089090;28;20032;-81
2022/01/10 03:23:03;;;;;;;1.55;1.23;;;;;;;5.12;68.81;101440.34;5092392;28;20032;-80
2022/01/10 03:25:29;;;;;;;0.25;0.25;;;;;;;5.16;68.69;101448.28;5088534;28;20024;-81
2022/01/10 03:27:56;;;;;;;0.40;0.40;;;;;;;5.22;68.48;101462.34;5085715;28;20044;-81
2022/01/10 03:30:22;;;;;;;0.10;0.10;;;;;;;5.23;68.46;101470.25;5091097;28;20126;-81
2022/01/10 03:32:51;;;;;;;1.23;1.23;;;;;;;5.25;68.44;101473.78;5089750;28;20056;-81
2022/01/10 03:35:18;;;;;;;0.17;0.17;;;;;;;5.25;68.79;101478.16;5091350;28;20051;-81
2022/01/10 03:37:44;;;;;;;0.52;0.52;;;;;;;5.29;68.64;101486.09;5086660;28;20072;-81
2022/01/10 03:40:11;;;;;;;1.45;1.35;;;;;;;5.36;68.33;101479.19;5084350;28;20391;-81
2022/01/10 03:42:38;;;;;;;0.20;0.20;;;;;;;5.37;68.47;101483.56;5085232;28;20024;-81
2022/01/10 03:45:06;;;;;;;0.10;0.10;;;;;;;5.40;68.41;101494.09;5082299;28;20533;-80
2022/01/10 03:47:32;;;;;;;0.20;0.20;;;;;;;5.37;68.52;101496.72;5081959;28;20040;-81
2022/01/10 03:49:58;;;;;;;0.10;0.10;;;;;;;5.43;68.50;101507.31;5086179;28;20082;-81
2022/01/10 03:52:26;;;;;;;0.10;0.10;;;;;;;5.47;68.44;101510.81;5083201;28;20497;-81
2022/01/10 03:54:53;;;;;;;0.30;0.30;;;;;;;5.47;68.27;101511.72;5083850;28;20032;-82
2022/01/10 03:57:19;;;;;;;0.40;0.40;;;;;;;5.48;68.13;101513.50;5085047;28;20035;-81
2022/01/10 03:59:45;;;;;;;0.25;0.25;;;;;;;5.46;68.30;101509.94;5083144;28;20036;-81
2022/01/10 04:02:11;;;;;;;0.20;0.20;;;;;;;5.48;67.98;101507.31;5084564;28;20039;-81
2022/01/10 04:04:38;;;;;;;0.13;0.13;;;;;;;5.47;68.32;101511.72;5084674;28;20025;-81
2022/01/10 04:07:05;;;;;;;0.22;0.22;;;;;;;5.45;68.00;101508.19;5083049;28;20025;-81
2022/01/10 04:09:32;;;;;;;0.10;0.10;;;;;;;5.45;68.05;101517.81;5084301;28;20051;-81
2022/01/10 04:11:58;;;;;;;1.27;1.17;;;;;;;5.45;67.96;101517.81;5087096;28;20067;-80
2022/01/10 04:14:24;;;;;;;0.30;0.30;;;;;;;5.48;68.11;101523.09;5085892;28;20033;-81
2022/01/10 04:16:50;;;;;;;0.10;0.10;;;;;;;5.47;67.79;101526.59;5091279;28;20036;-81
2022/01/10 04:19:16;;;;;;;0.10;0.10;;;;;;;5.43;67.76;101525.69;5086912;28;20032;-82
2022/01/10 04:21:52;;;;;;;0.75;0.75;;;;;;;5.50;67.92;101538.03;5085787;28;20051;-81
2022/01/10 04:24:27;;;;;;;0.10;0.10;;;;;;;5.49;68.11;101543.28;5085785;28;20024;-80
2022/01/10 04:27:01;;;;;;;0.10;0.10;;;;;;;5.53;68.21;101541.56;5086934;28;20020;-81
2022/01/10 04:29:34;;;;;;;0.82;0.82;;;;;;;5.57;68.34;101556.50;5086086;28;20080;-81
2022/01/10 04:32:01;;;;;;;0.45;0.45;;;;;;;5.59;68.24;101567.94;5084987;28;20514;-81
2022/01/10 04:34:27;;;;;;;0.10;0.10;;;;;;;5.61;68.02;101560.94;5085072;28;20069;-82
2022/01/10 04:36:54;;;;;;;0.17;0.17;;;;;;;5.65;68.09;101578.53;5082100;28;20021;-80
2022/01/10 04:39:20;;;;;;;0.08;0.08;;;;;;;5.67;68.30;101571.53;5087200;28;20024;-81
2022/01/10 04:41:46;;;;;;;0.10;0.10;;;;;;;5.71;68.07;101573.34;5085510;28;20420;-82
2022/01/10 04:44:12;;;;;;;0.10;0.10;;;;;;;5.73;68.19;101592.66;5085584;28;20032;-81
2022/01/10 04:46:38;;;;;;;0.10;0.10;;;;;;;5.71;68.15;101594.38;5084908;28;20037;-83
2022/01/10 04:49:08;;;;;;;0.65;0.65;;;;;;;5.74;67.93;101597.03;5087610;28;20024;-82
2022/01/10 04:51:34;;;;;;;0.10;0.10;;;;;;;5.76;67.97;101605.81;5087936;28;20028;-81
2022/01/10 04:54:00;;;;;;;0.10;0.10;;;;;;;5.77;67.91;101612.84;5085224;28;20531;-81
2022/01/10 04:56:26;;;;;;;0.15;0.15;;;;;;;5.80;68.02;101614.63;5082404;28;20029;-80
2022/01/10 04:58:53;;;;;;;0.15;0.15;;;;;;;5.82;68.19;101619.03;5085594;28;20036;-82
2022/01/10 05:01:20;;;;;;;0.20;0.20;;;;;;;5.84;67.80;101637.47;5087256;28;20035;-82
2022/01/10 05:03:46;;;;;;;0.10;0.10;;;;;;;5.88;68.08;101631.41;5084949;28;20170;-81
2022/01/10 05:06:12;;;;;;;0.10;0.10;;;;;;;5.91;67.89;101633.19;5081055;28;20016;-81
2022/01/10 05:08:38;;;;;;;0.05;0.05;;;;;;;5.95;68.01;101640.22;5080298;28;20085;-81
2022/01/10 05:11:05;;;;;;;0.10;0.10;;;;;;;5.97;67.99;101654.31;5081858;28;20024;-82
2022/01/10 05:13:32;;;;;;;0.10;0.10;;;;;;;5.99;68.03;101647.31;5092389;28;20037;-82
2022/01/10 05:15:58;;;;;;;0.10;0.10;;;;;;;6.01;67.84;101650.88;5085850;28;20021;-81
2022/01/10 05:18:24;;;;;;;0.10;0.10;;;;;;;6.01;67.73;101650.88;5082097;28;20024;-81
2022/01/10 05:20:51;;;;;;;0.10;0.10;;;;;;;6.02;67.65;101657.00;5084531;28;20044;-82
2022/01/10 05:23:18;;;;;;;0.20;0.20;;;;;;;6.02;67.65;101655.28;5089588;28;20106;-82
2022/01/10 05:25:46;;;;;;;0.20;0.20;;;;;;;6.04;67.87;101666.66;5087529;28;20467;-82
2022/01/10 05:28:13;;;;;;;0.10;0.10;;;;;;;6.06;67.58;101679.88;5093098;28;20499;-81
2022/01/10 05:30:40;;;;;;;0.10;0.10;;;;;;;6.05;67.58;101673.69;5091407;28;20596;-81
2022/01/10 05:33:07;;;;;;;0.17;0.17;;;;;;;6.03;67.38;101685.97;5087327;28;20077;-81
2022/01/10 05:35:35;;;;;;;0.10;0.10;;;;;;;6.01;67.32;101682.44;5086943;28;20053;-82
2022/01/10 05:38:02;;;;;;;0.10;0.10;;;;;;;6.02;67.27;101678.94;5085551;28;20036;-81
2022/01/10 05:40:28;;;;;;;0.10;0.10;;;;;;;6.04;67.39;101687.72;5086921;28;20032;-82
2022/01/10 05:42:55;;;;;;;1.98;0.77;;;;;;;6.04;67.46;101690.34;5087771;28;20115;-82
2022/01/10 05:45:21;;;;;;;0.10;0.10;;;;;;;6.04;67.38;101703.50;5099171;28;20042;-80
2022/01/10 05:47:47;;;;;;;0.80;0.80;;;;;;;6.06;67.36;101695.66;5081173;28;20107;-81
2022/01/10 05:50:18;;;;;;;0.13;0.13;;;;;;;6.06;67.48;101701.78;5082620;28;20089;-81
2022/01/10 05:52:44;;;;;;;0.10;0.10;;;;;;;6.06;67.48;101700.91;5082581;28;20036;-82
2022/01/10 05:55:11;;;;;;;0.00;0.00;;;;;;;6.04;67.44;101708.75;5082721;28;20036;-81
2022/01/10 05:57:37;;;;;;;0.10;0.10;;;;;;;6.06;67.41;101707.03;5081928;28;20028;-81
2022/01/10 06:00:04;;;;;;;0.10;0.10;;;;;;;6.06;67.29;101707.03;5082561;28;20028;-81
2022/01/10 06:02:30;;;;;;;0.10;0.10;;;;;;;6.04;67.40;101718.41;5082795;28;20028;-81
2022/01/10 06:04:59;;;;;;;0.20;0.20;;;;;;;6.06;67.42;101716.69;5086111;28;20032;-82
2022/01/10 06:07:25;;;;;;;0.15;0.15;;;;;;;6.06;67.37;101725.47;5090278;28;20027;-82
2022/01/10 06:09:52;;;;;;;0.10;0.10;;;;;;;6.07;67.29;101724.59;5083784;28;20040;-82
2022/01/10 06:12:22;;;;;;;5.47;1.23;;;;;;;6.03;67.23;101730.69;5092122;28;20060;-80
2022/01/10 06:14:48;;;;;;;0.40;0.40;;;;;;;6.06;67.38;101745.63;5089127;28;20514;-79
2022/01/10 06:17:14;;;;;;;0.20;0.20;;;;;;;6.04;67.38;101755.25;5093740;28;20032;-80
2022/01/10 06:19:40;;;;;;;0.10;0.10;;;;;;;6.06;67.35;101759.66;5087127;28;20032;-82
2022/01/10 06:22:06;;;;;;;0.10;0.10;;;;;;;6.05;67.48;101765.78;5088209;28;19927;-80
2022/01/10 06:24:33;;;;;;;0.20;0.20;;;;;;;6.08;67.49;101771.09;5083388;28;20120;-81
2022/01/10 06:26:59;;;;;;;0.10;0.10;;;;;;;6.08;67.44;101760.59;5087896;28;20039;-80
2022/01/10 06:29:25;;;;;;;0.10;0.10;;;;;;;6.10;67.49;101772.00;5085738;28;20040;-81
2022/01/10 06:31:51;;;;;;;0.10;0.10;;;;;;;6.10;67.32;101777.25;5081238;28;20086;-81
2022/01/10 06:34:18;;;;;;;0.10;0.10;;;;;;;6.10;67.30;101777.25;5086488;28;20024;-81
2022/01/10 06:36:45;;;;;;;0.10;0.10;;;;;;;6.09;67.28;101786.03;5084752;28;20054;-81
2022/01/10 06:39:12;;;;;;;0.10;0.10;;;;;;;6.11;67.34;101799.19;5085072;28;20035;-79
2022/01/10 06:41:38;;;;;;;0.10;0.10;;;;;;;6.09;67.15;101800.91;5083740;28;20043;-80
2022/01/10 06:44:04;;;;;;;0.10;0.10;;;;;;;6.08;67.36;101805.31;5085755;28;20055;-80
2022/01/10 06:46:30;;;;;;;0.10;0.10;;;;;;;6.08;67.45;101807.94;5083937;28;20478;-80
2022/01/10 06:48:58;;;;;;;0.10;0.10;;;;;;;6.09;67.34;101817.59;5084232;28;20039;-80
2022/01/10 06:51:24;;;;;;;0.10;0.10;;;;;;;6.08;67.29;101815.84;5081172;28;20055;-80
2022/01/10 06:53:50;;;;;;;0.20;0.20;;;;;;;6.08;67.18;101810.56;5082906;28;20505;-81
2022/01/10 06:56:16;;;;;;;0.10;0.10;;;;;;;6.07;67.39;101811.44;5087884;28;20482;-81
2022/01/10 06:58:42;;;;;;;0.10;0.10;;;;;;;6.05;67.25;101826.28;5076856;28;20044;-81
2022/01/10 07:01:09;;;;;;;0.10;0.10;;;;;;;6.02;67.37;101833.25;5080223;28;20111;-82
2022/01/10 07:03:35;;;;;;;0.10;0.10;;;;;;;6.00;67.21;101833.25;5081919;28;20039;-84
2022/01/10 07:06:01;;;;;;;0.10;0.10;;;;;;;5.97;67.21;101846.34;5085747;28;20085;-80
2022/01/10 07:08:27;;;;;;;0.10;0.10;;;;;;;5.95;66.92;101856.81;5078938;28;20399;-79
2022/01/10 07:10:54;;;;;;;0.20;0.20;;;;;;;5.92;66.90;101856.78;5094788;28;20044;-82
2022/01/10 07:13:21;;;;;;;0.20;0.20;;;;;;;5.95;67.06;101861.19;5081211;28;20051;-81
2022/01/10 07:15:47;;;;;;;0.35;0.35;;;;;;;5.93;67.08;101873.44;5088045;28;20028;-81
2022/01/10 07:18:13;;;;;;;0.20;0.20;;;;;;;5.93;67.33;101882.22;5087806;28;20043;-82
2022/01/10 07:20:39;;;;;;;0.20;0.20;;;;;;;5.94;67.37;101889.25;5094502;28;20039;-83
2022/01/10 07:23:05;;;;;;;0.30;0.30;;;;;;;5.96;67.27;101894.53;5094581;28;20058;-82
2022/01/10 07:25:32;;;;;;;0.25;0.25;;;;;;;5.99;67.39;101898.13;5093388;28;20471;-82
2022/01/10 07:27:58;;;;;;;0.10;0.10;;;;;;;6.03;67.34;101912.22;5084945;28;20029;-81
2022/01/10 07:30:25;;;;;;;0.10;0.10;;;;;;;6.03;67.54;101912.22;5073972;28;20031;-82
2022/01/10 07:32:51;;;;;;;0.10;0.10;;;;;;;6.06;67.39;101914.91;5074091;28;20036;-81
2022/01/10 07:35:17;;;;;;;0.17;0.17;;;;;;;6.08;67.53;101922.81;5074346;28;20109;-82
2022/01/10 07:37:43;;;;;;;0.15;0.15;;;;;;;6.06;67.34;101928.06;5074146;28;20055;-81
2022/01/10 07:40:11;;;;;;;0.20;0.20;;;;;;;6.09;67.30;101937.75;5073876;28;20025;-82
2022/01/10 07:42:37;;;;;;;0.15;0.15;;;;;;;6.13;67.47;101944.81;5073931;28;20058;-82
2022/01/10 07:45:04;;;;;;;0.10;0.10;;;;;;;6.12;67.28;101943.94;5087482;28;20032;-82
2022/01/10 07:47:31;;;;;;;0.10;0.10;;;;;;;6.15;67.46;101949.22;5080987;28;20032;-83
2022/01/10 07:49:57;;;;;;;0.10;0.10;;;;;;;6.19;67.53;101959.81;5073845;28;20020;-82
2022/01/10 07:52:26;;;;;;;0.10;0.10;;;;;;;6.20;67.56;101959.84;5073918;28;20040;-82
2022/01/10 07:54:52;;;;;;;0.10;0.10;;;;;;;6.23;67.33;101959.91;5073677;28;20025;-83
2022/01/10 07:57:19;;;;;;;0.68;0.68;;;;;;;6.23;67.25;101973.06;5073860;28;20082;-85
2022/01/10 07:59:45;;;;;;;0.80;0.80;;;;;;;6.24;67.31;101979.22;5073465;28;20081;-83
2022/01/10 08:02:11;;;;;;;0.10;0.10;;;;;;;6.26;67.31;101978.38;5085679;28;20444;-83
2022/01/10 08:04:38;;;;;;;0.20;0.20;;;;;;;6.27;67.13;101989.81;5093025;28;20457;-84
2022/01/10 08:07:05;;;;;;;0.10;0.10;;;;;;;6.29;67.14;101988.06;5085658;28;20029;-83
2022/01/10 08:09:31;;;;;;;0.10;0.10;;;;;;;6.29;67.17;101988.06;5080778;28;20036;-81
2022/01/10 08:11:59;;;;;;;0.10;0.10;;;;;;;6.30;67.19;101990.69;5080073;28;20070;-82
2022/01/10 08:14:29;;;;;;;0.50;0.50;;;;;;;6.33;67.18;101989.91;5078421;28;20118;-84
2022/01/10 08:17:11;;;;;;;0.10;0.10;;;;;;;6.38;67.35;102000.47;5080195;28;20070;-82
2022/01/10 08:19:37;;;;;;;;;;;;;;;6.52;66.81;102011.22;5080268;28;20502;-83
2022/01/10 08:22:04;;;;;;;0.22;0.22;;;;;;;6.39;67.06;102016.31;5085070;28;20378;-83
2022/01/10 08:24:31;;;;;;;0.10;0.10;;;;;;;6.42;67.21;102021.63;5088291;28;20028;-84
2022/01/10 08:26:58;;;;;;;0.05;0.05;;;;;;;6.45;67.35;102020.78;5082612;28;20077;-82
2022/01/10 08:29:24;;;;;;;0.10;0.10;;;;;;;6.50;67.35;102029.63;5080811;28;20433;-84
2022/01/10 08:31:51;;;;;;;0.20;0.20;;;;;;;6.53;67.26;102039.34;5084926;28;20047;-83
2022/01/10 08:34:17;;;;;;;0.10;0.10;;;;;;;6.57;67.25;102041.19;5083389;28;20032;-81
2022/01/10 08:36:44;;;;;;;0.30;0.30;;;;;;;6.61;67.25;102053.53;5082221;28;20094;-83
2022/01/10 08:39:10;;;;;;;0.20;0.20;;;;;;;6.63;67.30;102049.16;5079870;28;20413;-81
2022/01/10 08:41:37;;;;;;;0.20;0.20;;;;;;;6.67;67.31;102053.63;5079574;28;20549;-82
2022/01/10 08:44:05;;;;;;;0.30;0.30;;;;;;;6.71;67.38;102054.56;5080731;28;20043;-83
2022/01/10 08:46:32;;;;;;;0.10;0.10;;;;;;;6.71;67.18;102052.78;5084649;28;20036;-82
2022/01/10 08:48:58;;;;;;;0.10;0.10;;;;;;;6.73;67.09;102058.97;5081659;28;20441;-83
2022/01/10 08:51:24;;;;;;;0.10;0.10;;;;;;;6.77;67.23;102063.41;5081573;28;20063;-83
2022/01/10 08:53:51;;;;;;;0.35;0.35;;;;;;;6.80;67.15;102071.38;5083710;28;20039;-81
2022/01/10 08:56:18;;;;;;;0.20;0.20;;;;;;;6.80;66.90;102074.03;5082527;28;20379;-83
2022/01/10 08:58:44;;;;;;;0.10;0.10;;;;;;;6.86;66.90;102070.56;5082363;28;20099;-82
2022/01/10 09:01:10;;;;;;;0.10;0.10;;;;;;;6.90;67.13;102071.50;5084000;28;20043;-82
2022/01/10 09:03:37;;;;;;;0.20;0.20;;;;;;;6.93;67.19;102071.56;5091861;28;20394;-83
2022/01/10 09:06:03;;;;;;;0.63;0.63;;;;;;;6.96;67.02;102072.47;5092495;28;20026;-83
2022/01/10 09:08:35;;;;;;;0.20;0.20;;;;;;;7.01;67.13;102085.72;5089194;28;20043;-84
2022/01/10 09:11:02;;;;;;;4.38;2.13;;;;;;;7.05;66.78;102086.66;5075693;28;20071;-84
2022/01/10 09:13:29;;;;;;;0.47;0.47;;;;;;;7.06;66.84;102089.31;5072601;28;20191;-84
2022/01/10 09:15:55;;;;;;;3.00;2.80;;;;;;;7.11;66.83;102100.81;5072559;28;20032;-84
2022/01/10 09:18:21;;;;;;;0.38;0.38;;;;;;;7.13;66.82;102096.44;5072408;28;20082;-84
2022/01/10 09:20:47;;;;;;;0.10;0.10;;;;;;;7.19;67.04;102102.66;5072403;28;20040;-83
2022/01/10 09:23:14;;;;;;;0.15;0.15;;;;;;;7.20;66.51;102101.81;5088350;28;20488;-82
2022/01/10 09:25:41;;;;;;;0.10;0.10;;;;;;;7.20;66.32;102096.53;5083921;28;20042;-84
2022/01/10 09:28:08;;;;;;;0.10;0.10;;;;;;;7.25;66.47;102103.66;5092738;28;20041;-83
2022/01/10 09:30:34;;;;;;;0.50;0.50;;;;;;;7.26;66.74;102101.91;5089209;28;20459;-84
2022/01/10 09:33:00;;;;;;;0.17;0.17;;;;;;;7.28;66.74;102116.00;5072961;28;20491;-83
2022/01/10 09:35:28;;;;;;;0.10;0.10;;;;;;;7.27;66.68;102120.38;5070116;28;20025;-83
2022/01/10 09:37:55;;;;;;;0.10;0.10;;;;;;;7.31;66.65;102126.56;5071162;28;20028;-84
2022/01/10 09:40:22;;;;;;;0.10;0.10;;;;;;;7.32;66.46;102133.63;5078772;28;20044;-83
2022/01/10 09:42:50;;;;;;;0.45;0.45;;;;;;;7.37;66.54;102137.22;5079965;28;20037;-84
2022/01/10 09:45:16;;;;;;;0.20;0.20;;;;;;;7.40;66.21;102137.28;5077580;28;20111;-91
2022/01/10 09:47:42;;;;;;;0.10;0.10;;;;;;;7.42;66.42;102143.44;5077221;28;20039;-85
2022/01/10 09:50:10;;;;;;;0.10;0.10;;;;;;;7.52;66.51;102151.47;5087791;28;20029;-85
2022/01/10 09:52:39;;;;;;;0.70;0.55;;;;;;;7.57;66.06;102145.38;5083580;28;20024;-85
2022/01/10 09:55:06;;;;;;;0.20;0.20;;;;;;;7.59;65.99;102156.00;5084151;28;20024;-85
2022/01/10 09:57:32;;;;;;;0.35;0.35;;;;;;;7.60;66.33;102161.28;5076752;28;20036;-85
2022/01/10 09:59:58;;;;;;;0.10;0.10;;;;;;;7.58;65.92;102164.75;5078426;28;20037;-84
2022/01/10 10:02:33;;;;;;;0.20;0.20;;;;;;;7.74;65.95;102177.28;5075677;28;20033;-84
2022/01/10 10:05:04;;;;;;;5.88;1.27;;;;;;;7.74;66.05;102184.31;5083925;28;20036;-84
2022/01/10 10:07:31;;;;;;;0.10;0.10;;;;;;;7.78;65.80;102189.63;5088651;28;20024;-83
2022/01/10 10:10:03;;;;;;;0.20;0.20;;;;;;;7.84;66.36;102190.56;5082220;28;20425;-83
2022/01/10 10:12:30;;;;;;;0.20;0.20;;;;;;;7.87;66.03;102195.91;5081176;28;20032;-83
2022/01/10 10:14:59;;;;;;;0.10;0.10;;;;;;;7.91;66.36;102195.97;5075474;28;20103;-84
2022/01/10 10:17:27;;;;;;;0.10;0.10;;;;;;;7.93;66.12;102201.28;5076159;28;20440;-83
2022/01/10 10:19:53;;;;;;;0.32;0.32;;;;;;;7.98;66.20;102210.13;5075939;28;20036;-84
2022/01/10 10:22:23;;;;;;;0.10;0.10;;;;;;;8.03;65.94;102208.44;5089625;28;20032;-83
2022/01/10 10:24:50;;;;;;;0.93;0.93;;;;;;;8.07;65.89;102207.63;5086071;28;20052;-83
2022/01/10 10:27:20;;;;;;;1.52;1.48;;;;;;;8.12;65.99;102212.94;5085750;28;20029;-84
2022/01/10 10:29:48;;;;;;;0.55;0.55;;;;;;;8.10;65.68;102226.13;5077391;28;20475;-93
2022/01/10 10:32:15;;;;;;;0.50;0.50;;;;;;;8.18;66.25;102222.69;5082546;28;20032;-85
2022/01/10 10:34:42;;;;;;;0.20;0.20;;;;;;;8.26;66.27;102216.63;5076645;28;20036;-84
2022/01/10 10:39:57;;;;;;;0.70;0.70;;;;;;;8.35;65.26;102223.78;5082185;27;20443;-83
2022/01/10 10:42:28;;;;;;;0.10;0.10;;;;;;;8.38;65.57;102239.66;5070208;28;20033;-88
2022/01/10 10:44:56;;;;;;;0.13;0.13;;;;;;;8.43;65.96;102235.28;5069367;28;20037;-85
2022/01/10 10:47:26;;;;;;;0.20;0.20;;;;;;;8.50;65.47;102240.69;5062018;28;20033;-84
2022/01/10 10:49:58;;;;;;;26.20;2.13;;;;;;;8.54;65.64;102248.66;5049172;28;20450;-85
2022/01/10 10:52:32;;;;;;;0.10;0.10;;;;;;;8.58;65.82;102252.22;5049062;28;20052;-85
2022/01/10 10:55:05;;;;;;;0.20;0.20;;;;;;;8.59;65.81;102264.56;5049141;28;20029;-83
2022/01/10 10:57:32;;;;;;;0.10;0.10;;;;;;;8.61;65.32;102262.84;5031710;28;20112;-84
2022/01/10 11:00:00;;;;;;;0.13;0.13;;;;;;;8.67;65.81;102268.19;5030739;28;20113;-84
2022/01/10 11:02:27;;;;;;;0.73;0.73;;;;;;;8.68;65.28;102267.31;5036965;28;20033;-84
2022/01/10 11:04:53;;;;;;;1.45;1.35;;;;;;;8.69;65.07;102270.84;5048631;28;20425;-83
2022/01/10 11:07:24;;;;;;;0.20;0.20;;;;;;;8.70;65.36;102270.88;5037184;28;20102;-84
2022/01/10 11:09:51;;;;;;;0.22;0.22;;;;;;;8.77;64.56;102284.16;5049353;28;20060;-85
2022/01/10 11:12:22;;;;;;;0.20;0.20;;;;;;;8.76;64.25;102282.38;5050136;28;20068;-84
2022/01/10 11:14:50;;;;;;;0.10;0.10;;;;;;;8.82;64.35;102285.06;5038141;28;20025;-83
2022/01/10 11:17:19;;;;;;;0.45;0.45;;;;;;;8.82;64.33;102290.34;5037930;28;20420;-81
2022/01/10 11:22:49;;;;;;;0.10;0.10;;;;;;;8.98;64.50;102294.94;5050841;28;20432;-85
2022/01/10 11:25:33;;;;;;;0.40;0.40;;;;;;;9.09;64.86;102289.75;5036742;28;20029;-85
2022/01/10 11:28:24;;;;;;;0.15;0.15;;;;;;;9.16;64.13;102302.16;5027540;28;20022;-86
2022/01/10 11:30:53;;;;;;;0.15;0.15;;;;;;;9.12;64.71;102299.47;5016055;28;20034;-87
2022/01/10 11:33:22;;;;;;;0.40;0.40;;;;;;;9.14;64.28;102308.31;5019130;28;20034;-86
2022/01/10 11:35:58;;;;;;;0.22;0.22;;;;;;;9.31;64.87;102306.72;5019195;28;20070;-86
2022/01/10 11:38:48;;;;;;;0.20;0.20;;;;;;;9.40;65.23;102316.47;5018915;28;20029;-86
2022/01/10 11:41:32;;;;;;;1.55;1.38;;;;;;;9.46;64.60;102311.25;5018323;28;20031;-86
2022/01/10 11:46:52;;;;;;;0.52;0.52;;;;;;;9.55;63.06;102318.38;5122415;27;21593;-80
2022/01/10 11:49:21;;;;;;;0.10;0.10;;;;;;;9.56;62.82;102317.50;5114805;27;20462;-86
2022/01/10 11:54:40;;;;;;;0.20;0.20;;;;;;;9.71;62.91;102328.19;5064240;27;20477;-87